createdAt,value
2018-04-16T00:00:51.195Z,15.95
2018-04-16T00:03:02.373Z,15.92
2018-04-16T00:05:13.445Z,15.89
2018-04-16T00:07:24.601Z,15.87
2018-04-16T00:09:35.710Z,15.86
2018-04-16T00:11:46.795Z,15.83
2018-04-16T00:13:57.917Z,15.83
2018-04-16T00:16:09.029Z,15.80
2018-04-16T00:18:20.286Z,15.71
2018-04-16T00:20:31.376Z,15.65
2018-04-16T00:22:42.500Z,15.60
2018-04-16T00:24:53.765Z,15.57
2018-04-16T00:27:04.844Z,15.55
2018-04-16T00:29:16.094Z,15.58
2018-04-16T00:31:33.082Z,15.62
2018-04-16T00:33:50.233Z,15.63
2018-04-16T00:36:07.265Z,15.63
2018-04-16T00:38:24.301Z,15.63
2018-04-16T00:40:41.443Z,15.61
2018-04-16T00:42:58.567Z,15.59
2018-04-16T00:45:15.782Z,15.57
2018-04-16T00:47:32.809Z,15.57
2018-04-16T00:49:49.886Z,15.59
2018-04-16T00:52:06.971Z,15.58
2018-04-16T00:54:24.054Z,15.56
2018-04-16T00:56:41.118Z,15.49
2018-04-16T00:58:58.214Z,15.44
2018-04-16T01:01:15.277Z,15.43
2018-04-16T01:03:32.370Z,15.42
2018-04-16T01:05:49.534Z,15.43
2018-04-16T01:08:06.707Z,15.45
2018-04-16T01:10:23.983Z,15.48
2018-04-16T01:12:41.360Z,15.52
2018-04-16T01:17:41.829Z,15.57
2018-04-16T01:19:59.119Z,15.61
2018-04-16T01:22:16.266Z,15.64
2018-04-16T01:24:33.399Z,15.66
2018-04-16T01:26:50.655Z,15.67
2018-04-16T01:29:07.662Z,15.66
2018-04-16T01:31:24.736Z,15.65
2018-04-16T01:33:41.891Z,15.68
2018-04-16T01:35:58.978Z,15.67
2018-04-16T01:38:16.142Z,15.69
2018-04-16T01:40:33.290Z,15.73
2018-04-16T01:42:50.310Z,15.72
2018-04-16T01:45:07.403Z,15.72
2018-04-16T01:47:24.423Z,15.73
2018-04-16T01:49:41.552Z,15.73
2018-04-16T01:54:46.872Z,15.71
2018-04-16T01:57:03.925Z,15.71
2018-04-16T01:59:21.018Z,15.69
2018-04-16T02:01:38.086Z,15.70
2018-04-16T02:03:55.217Z,15.67
2018-04-16T02:06:12.348Z,15.64
2018-04-16T02:08:29.403Z,15.66
2018-04-16T02:10:46.407Z,15.67
2018-04-16T02:13:03.530Z,15.65
2018-04-16T02:15:20.821Z,15.66
2018-04-16T02:17:37.927Z,15.66
2018-04-16T02:19:55.028Z,15.64
2018-04-16T02:22:12.159Z,15.64
2018-04-16T02:24:29.283Z,15.66
2018-04-16T02:26:46.450Z,15.65
2018-04-16T02:29:03.521Z,15.67
2018-04-16T02:31:20.653Z,15.64
2018-04-16T02:33:37.735Z,15.57
2018-04-16T02:35:55.139Z,15.53
2018-04-16T02:38:12.138Z,15.49
2018-04-16T02:40:29.180Z,15.46
2018-04-16T02:42:46.205Z,15.43
2018-04-16T02:45:03.328Z,15.40
2018-04-16T02:47:20.403Z,15.36
2018-04-16T02:49:37.482Z,15.33
2018-04-16T02:51:54.617Z,15.30
2018-04-16T02:54:11.691Z,15.27
2018-04-16T02:56:29.505Z,15.22
2018-04-16T02:58:46.597Z,15.16
2018-04-16T03:03:48.518Z,15.05
2018-04-16T03:06:05.606Z,15.02
2018-04-16T03:08:22.639Z,15.00
2018-04-16T03:10:39.750Z,14.94
2018-04-16T03:12:56.934Z,14.88
2018-04-16T03:15:13.957Z,14.81
2018-04-16T03:17:31.050Z,14.77
2018-04-16T03:19:48.193Z,14.78
2018-04-16T03:22:05.202Z,14.78
2018-04-16T03:24:22.270Z,14.78
2018-04-16T03:26:39.334Z,14.75
2018-04-16T03:28:56.394Z,14.76
2018-04-16T03:31:13.410Z,14.79
2018-04-16T03:33:30.626Z,14.83
2018-04-16T03:35:47.716Z,14.79
2018-04-16T03:38:04.784Z,14.74
2018-04-16T03:40:21.827Z,14.67
2018-04-16T03:42:38.920Z,14.67
2018-04-16T03:44:55.901Z,14.71
2018-04-16T03:47:13.057Z,14.75
2018-04-16T03:52:18.466Z,14.78
2018-04-16T03:54:29.554Z,14.79
2018-04-16T03:56:40.679Z,14.79
2018-04-16T03:58:51.854Z,14.79
2018-04-16T04:01:03.073Z,14.77
2018-04-16T04:03:14.169Z,14.73
2018-04-16T04:05:25.285Z,14.68
2018-04-16T04:07:36.406Z,14.65
2018-04-16T04:09:47.671Z,14.65
2018-04-16T04:11:58.760Z,14.67
2018-04-16T04:14:09.856Z,14.66
2018-04-16T04:16:20.934Z,14.64
2018-04-16T04:18:32.063Z,14.60
2018-04-16T04:20:43.213Z,14.63
2018-04-16T04:23:06.439Z,14.66
2018-04-16T04:25:29.706Z,14.68
2018-04-16T04:27:52.832Z,14.69
2018-04-16T04:30:16.018Z,14.79
2018-04-16T04:32:27.150Z,14.82
2018-04-16T04:34:38.239Z,14.79
2018-04-16T04:36:49.360Z,14.77
2018-04-16T04:39:00.465Z,14.76
2018-04-16T04:41:11.566Z,14.71
2018-04-16T04:43:22.721Z,14.64
2018-04-16T04:45:33.815Z,14.66
2018-04-16T04:47:44.896Z,14.63
2018-04-16T04:49:55.986Z,14.64
2018-04-16T04:52:07.202Z,14.65
2018-04-16T04:54:18.320Z,14.63
2018-04-16T04:56:29.506Z,14.60
2018-04-16T04:58:40.586Z,14.58
2018-04-16T05:00:51.675Z,14.58
2018-04-16T05:03:02.763Z,14.56
2018-04-16T05:05:13.850Z,14.53
2018-04-16T05:07:25.001Z,14.49
2018-04-16T05:09:36.146Z,14.47
2018-04-16T05:11:47.387Z,14.51
2018-04-16T05:13:58.478Z,14.55
2018-04-16T05:16:09.708Z,14.59
2018-04-16T05:18:20.774Z,14.59
2018-04-16T05:20:31.897Z,14.61
2018-04-16T05:22:43.026Z,14.62
2018-04-16T05:24:54.083Z,14.62
2018-04-16T05:27:05.252Z,14.61
2018-04-16T05:29:16.354Z,14.57
2018-04-16T05:31:27.517Z,14.55
2018-04-16T05:33:38.634Z,14.55
2018-04-16T05:35:49.718Z,14.53
2018-04-16T05:38:00.834Z,14.54
2018-04-16T05:40:11.925Z,14.60
2018-04-16T05:42:23.109Z,14.65
2018-04-16T05:44:34.186Z,14.68
2018-04-16T05:46:45.370Z,14.66
2018-04-16T05:48:56.448Z,14.67
2018-04-16T05:51:07.622Z,14.70
2018-04-16T05:53:18.722Z,14.71
2018-04-16T05:55:29.871Z,14.70
2018-04-16T05:57:40.981Z,14.71
2018-04-16T05:59:52.050Z,14.72
2018-04-16T06:02:03.206Z,14.78
2018-04-16T06:04:14.313Z,14.82
2018-04-16T06:06:25.511Z,14.84
2018-04-16T06:08:36.626Z,14.88
2018-04-16T06:10:47.837Z,14.91
2018-04-16T06:12:59.018Z,14.92
2018-04-16T06:15:10.206Z,14.96
2018-04-16T06:17:21.382Z,14.97
2018-04-16T06:19:32.498Z,14.96
2018-04-16T06:21:43.637Z,14.99
2018-04-16T06:23:54.731Z,15.03
2018-04-16T06:26:05.803Z,15.05
2018-04-16T06:28:16.909Z,15.03
2018-04-16T06:30:28.022Z,15.03
2018-04-16T06:32:39.133Z,15.07
2018-04-16T06:34:50.326Z,15.02
2018-04-16T06:37:01.511Z,15.03
2018-04-16T06:39:12.550Z,15.10
2018-04-16T06:41:23.839Z,15.12
2018-04-16T06:43:34.910Z,15.16
2018-04-16T06:45:45.990Z,15.16
2018-04-16T06:47:57.053Z,15.19
2018-04-16T06:50:08.111Z,15.23
2018-04-16T06:52:19.336Z,15.21
2018-04-16T06:54:30.448Z,15.26
2018-04-16T06:56:41.587Z,15.25
2018-04-16T06:58:52.679Z,15.28
2018-04-16T07:01:03.811Z,15.31
2018-04-16T07:03:14.913Z,15.30
2018-04-16T07:05:26.063Z,15.36
2018-04-16T07:07:37.219Z,15.46
2018-04-16T07:09:48.320Z,15.53
2018-04-16T07:11:59.499Z,15.59
2018-04-16T07:14:10.550Z,15.65
2018-04-16T07:16:21.767Z,15.77
2018-04-16T07:18:32.878Z,15.80
2018-04-16T07:20:44.013Z,15.88
2018-04-16T07:22:55.095Z,15.92
2018-04-16T07:25:06.187Z,15.93
2018-04-16T07:27:17.363Z,16.04
2018-04-16T07:29:28.434Z,16.17
2018-04-16T07:31:39.579Z,16.27
2018-04-16T07:33:50.657Z,16.35
2018-04-16T07:36:01.866Z,16.45
2018-04-16T07:38:12.977Z,16.50
2018-04-16T07:40:24.034Z,16.59
2018-04-16T07:42:35.136Z,16.71
2018-04-16T07:44:46.201Z,16.77
2018-04-16T07:46:57.356Z,16.79
2018-04-16T07:49:08.422Z,16.88
2018-04-16T07:51:19.560Z,16.90
2018-04-16T07:53:30.660Z,17.00
2018-04-16T07:55:41.802Z,17.09
2018-04-16T07:57:52.901Z,17.14
2018-04-16T08:00:03.962Z,17.29
2018-04-16T08:02:15.054Z,17.42
2018-04-16T08:04:26.145Z,17.48
2018-04-16T08:06:37.312Z,17.59
2018-04-16T08:08:48.515Z,17.69
2018-04-16T08:10:59.623Z,17.69
2018-04-16T08:13:10.718Z,17.70
2018-04-16T08:15:21.898Z,17.86
2018-04-16T08:17:32.987Z,17.96
2018-04-16T08:19:44.128Z,18.15
2018-04-16T08:21:55.233Z,18.59
2018-04-16T08:24:06.339Z,19.05
2018-04-16T08:26:17.481Z,19.59
2018-04-16T08:28:28.591Z,19.95
2018-04-16T08:30:39.785Z,20.14
2018-04-16T08:32:50.826Z,20.36
2018-04-16T08:35:02.053Z,20.53
2018-04-16T08:37:13.119Z,20.68
2018-04-16T08:39:24.170Z,20.81
2018-04-16T08:41:35.254Z,21.05
2018-04-16T08:43:46.310Z,21.34
2018-04-16T08:45:57.497Z,21.47
2018-04-16T08:48:08.662Z,21.58
2018-04-16T08:50:19.754Z,21.79
2018-04-16T08:52:30.858Z,22.03
2018-04-16T08:54:41.913Z,22.21
2018-04-16T08:56:53.017Z,22.23
2018-04-16T08:59:04.091Z,22.35
2018-04-16T09:01:15.136Z,22.45
2018-04-16T09:03:26.286Z,22.53
2018-04-16T09:05:37.482Z,22.61
2018-04-16T09:07:48.637Z,22.41
2018-04-16T09:09:59.826Z,22.52
2018-04-16T09:12:10.908Z,22.53
2018-04-16T09:14:21.999Z,22.39
2018-04-16T09:16:33.054Z,22.34
2018-04-16T09:18:44.169Z,22.62
2018-04-16T09:20:55.243Z,22.85
2018-04-16T09:23:06.342Z,22.96
2018-04-16T09:25:17.394Z,22.89
2018-04-16T09:27:28.496Z,22.82
2018-04-16T09:29:39.566Z,22.75
2018-04-16T09:31:50.635Z,22.99
2018-04-16T09:34:01.734Z,23.04
2018-04-16T09:36:12.781Z,23.18
2018-04-16T09:38:23.995Z,23.27
2018-04-16T09:40:35.085Z,23.40
2018-04-16T09:42:46.218Z,23.45
2018-04-16T09:44:57.327Z,23.60
2018-04-16T09:47:08.398Z,23.85
2018-04-16T09:49:19.483Z,24.03
2018-04-16T09:51:30.577Z,24.03
2018-04-16T09:53:41.651Z,23.91
2018-04-16T09:55:52.797Z,23.78
2018-04-16T09:58:04.034Z,23.85
2018-04-16T10:00:15.136Z,24.18
2018-04-16T10:02:26.279Z,24.42
2018-04-16T10:04:37.446Z,24.51
2018-04-16T10:06:48.563Z,24.70
2018-04-16T10:08:59.626Z,24.87
2018-04-16T10:11:10.742Z,24.95
2018-04-16T10:13:21.823Z,24.84
2018-04-16T10:15:32.893Z,24.69
2018-04-16T10:17:44.097Z,24.52
2018-04-16T10:19:55.133Z,24.40
2018-04-16T10:22:06.261Z,24.16
2018-04-16T10:24:17.383Z,24.16
2018-04-16T10:26:28.454Z,24.05
2018-04-16T10:28:39.537Z,24.00
2018-04-16T10:30:50.583Z,23.86
2018-04-16T10:33:01.652Z,23.76
2018-04-16T10:35:12.761Z,23.73
2018-04-16T10:37:23.843Z,23.47
2018-04-16T10:39:34.918Z,23.20
2018-04-16T10:41:45.975Z,23.20
2018-04-16T10:43:57.017Z,23.08
2018-04-16T10:46:08.136Z,22.87
2018-04-16T10:48:19.203Z,22.54
2018-04-16T10:50:30.401Z,22.43
2018-04-16T10:52:41.527Z,22.37
2018-04-16T10:54:52.653Z,22.25
2018-04-16T10:57:03.744Z,22.15
2018-04-16T10:59:14.828Z,22.10
2018-04-16T11:01:25.922Z,22.06
2018-04-16T11:03:36.974Z,22.00
2018-04-16T11:05:48.163Z,22.01
2018-04-16T11:07:59.210Z,22.04
2018-04-16T11:10:10.417Z,22.16
2018-04-16T11:12:21.491Z,22.21
2018-04-16T11:14:32.661Z,22.20
2018-04-16T11:16:43.757Z,22.26
2018-04-16T11:18:54.829Z,22.25
2018-04-16T11:21:05.881Z,22.25
2018-04-16T11:23:16.998Z,22.23
2018-04-16T11:25:28.120Z,22.34
2018-04-16T11:27:39.220Z,22.37
2018-04-16T11:29:50.306Z,22.31
2018-04-16T11:32:01.397Z,22.37
2018-04-16T11:34:12.491Z,22.38
2018-04-16T11:36:23.551Z,22.42
2018-04-16T11:38:34.624Z,22.39
2018-04-16T11:40:45.671Z,22.39
2018-04-16T11:42:56.809Z,22.46
2018-04-16T11:45:07.895Z,22.72
2018-04-16T11:47:19.065Z,22.83
2018-04-16T11:49:30.115Z,22.78
2018-04-16T11:51:41.199Z,22.78
2018-04-16T11:53:52.269Z,22.73
2018-04-16T11:56:03.317Z,22.68
2018-04-16T11:58:14.402Z,22.63
2018-04-16T12:00:25.466Z,22.56
2018-04-16T12:02:36.691Z,22.52
2018-04-16T12:04:47.803Z,22.45
2018-04-16T12:06:59.043Z,22.34
2018-04-16T12:09:10.130Z,22.34
2018-04-16T12:11:21.186Z,22.40
2018-04-16T12:13:32.228Z,22.47
2018-04-16T12:15:43.311Z,22.74
2018-04-16T12:17:54.954Z,22.98
2018-04-16T12:20:06.058Z,23.12
2018-04-16T12:22:17.120Z,23.30
2018-04-16T12:24:28.360Z,23.17
2018-04-16T12:26:39.383Z,23.08
2018-04-16T12:28:50.577Z,23.14
2018-04-16T12:31:05.590Z,23.28
2018-04-16T12:33:16.669Z,23.40
2018-04-16T12:35:27.729Z,23.34
2018-04-16T12:37:38.835Z,23.42
2018-04-16T12:39:52.653Z,23.45
2018-04-16T12:42:04.722Z,23.25
2018-04-16T12:44:15.793Z,23.06
2018-04-16T12:46:26.877Z,23.13
2018-04-16T12:48:37.976Z,23.08
2018-04-16T12:50:49.041Z,23.04
2018-04-16T12:53:00.122Z,23.00
2018-04-16T12:55:11.211Z,22.90
2018-04-16T12:57:22.869Z,22.78
2018-04-16T12:59:33.943Z,22.80
2018-04-16T13:01:45.129Z,22.81
2018-04-16T13:03:56.263Z,22.81
2018-04-16T13:06:07.462Z,22.78
2018-04-16T13:08:18.614Z,22.83
2018-04-16T13:10:29.702Z,22.80
2018-04-16T13:12:41.593Z,22.83
2018-04-16T13:14:52.814Z,22.63
2018-04-16T13:17:04.130Z,22.40
2018-04-16T13:19:15.352Z,22.23
2018-04-16T13:21:27.369Z,22.09
2018-04-16T13:23:38.686Z,22.01
2018-04-16T13:25:49.763Z,21.96
2018-04-16T13:28:01.769Z,21.92
2018-04-16T13:30:12.921Z,21.88
2018-04-16T13:32:24.000Z,21.80
2018-04-16T13:34:35.202Z,21.73
2018-04-16T13:36:47.208Z,21.74
2018-04-16T13:38:58.295Z,21.64
2018-04-16T13:41:09.427Z,21.60
2018-04-16T13:43:20.646Z,21.58
2018-04-16T13:45:31.715Z,21.51
2018-04-16T13:47:42.902Z,21.46
2018-04-16T13:49:55.815Z,21.47
2018-04-16T13:52:06.933Z,21.38
2018-04-16T13:54:18.002Z,21.38
2018-04-16T13:56:29.071Z,21.43
2018-04-16T13:58:40.167Z,21.46
2018-04-16T14:00:52.226Z,21.50
2018-04-16T14:03:03.325Z,21.47
2018-04-16T14:05:14.421Z,21.46
2018-04-16T14:07:25.517Z,21.44
2018-04-16T14:09:36.693Z,21.46
2018-04-16T14:11:47.758Z,21.40
2018-04-16T14:13:58.914Z,21.38
2018-04-16T14:16:10.014Z,21.40
2018-04-16T14:18:21.196Z,21.41
2018-04-16T14:20:32.250Z,21.44
2018-04-16T14:22:50.242Z,21.44
2018-04-16T14:25:01.359Z,21.45
2018-04-16T14:27:12.418Z,21.49
2018-04-16T14:29:23.495Z,21.55
2018-04-16T14:31:34.765Z,21.61
2018-04-16T14:33:45.873Z,21.72
2018-04-16T14:35:56.967Z,21.87
2018-04-16T14:38:08.069Z,22.05
2018-04-16T14:40:19.275Z,22.20
2018-04-16T14:42:32.229Z,22.34
2018-04-16T14:44:43.327Z,22.35
2018-04-16T14:46:54.367Z,22.38
2018-04-16T14:49:05.498Z,22.35
2018-04-16T14:51:18.399Z,22.20
2018-04-16T14:53:29.485Z,22.14
2018-04-16T14:55:40.578Z,22.11
2018-04-16T14:57:53.403Z,22.11
2018-04-16T15:00:04.471Z,22.05
2018-04-16T15:02:15.580Z,21.93
2018-04-16T15:04:26.726Z,21.96
2018-04-16T15:06:37.808Z,21.92
2018-04-16T15:08:49.782Z,21.93
2018-04-16T15:11:01.059Z,21.89
2018-04-16T15:13:14.911Z,21.93
2018-04-16T15:15:27.906Z,21.88
2018-04-16T15:17:38.994Z,21.81
2018-04-16T15:19:50.103Z,21.72
2018-04-16T15:22:01.318Z,21.74
2018-04-16T15:24:12.421Z,21.73
2018-04-16T15:26:23.512Z,21.73
2018-04-16T15:28:34.610Z,21.71
2018-04-16T15:30:47.574Z,21.73
2018-04-16T15:32:58.694Z,21.73
2018-04-16T15:35:09.979Z,21.58
2018-04-16T15:37:21.107Z,21.47
2018-04-16T15:39:32.179Z,21.40
2018-04-16T15:41:43.410Z,21.36
2018-04-16T15:43:56.396Z,21.30
2018-04-16T15:46:07.523Z,21.24
2018-04-16T15:48:21.251Z,21.18
2018-04-16T15:50:32.381Z,21.10
2018-04-16T15:52:43.442Z,21.09
2018-04-16T15:54:54.577Z,21.07
2018-04-16T15:57:08.516Z,21.01
2018-04-16T15:59:19.593Z,20.95
2018-04-16T16:01:30.729Z,20.93
2018-04-16T16:03:42.638Z,20.95
2018-04-16T16:05:54.602Z,20.93
2018-04-16T16:08:05.761Z,20.93
2018-04-16T16:10:16.893Z,20.88
2018-04-16T16:12:28.918Z,20.83
2018-04-16T16:14:40.017Z,20.85
2018-04-16T16:16:51.222Z,20.76
2018-04-16T16:19:02.325Z,20.69
2018-04-16T16:21:13.459Z,20.69
2018-04-16T16:23:25.494Z,20.64
2018-04-16T16:25:36.551Z,20.61
2018-04-16T16:27:47.698Z,20.55
2018-04-16T16:29:58.762Z,20.50
2018-04-16T16:32:10.414Z,20.49
2018-04-16T16:34:21.509Z,20.51
2018-04-16T16:36:32.684Z,20.50
2018-04-16T16:38:43.765Z,20.47
2018-04-16T16:40:54.871Z,20.44
2018-04-16T16:43:05.980Z,20.48
2018-04-16T16:45:17.096Z,20.46
2018-04-16T16:47:28.235Z,20.46
2018-04-16T16:49:39.342Z,20.42
2018-04-16T16:51:50.450Z,20.40
2018-04-16T16:54:01.689Z,20.42
2018-04-16T16:56:14.729Z,20.43
2018-04-16T16:58:25.826Z,20.43
2018-04-16T17:00:36.894Z,20.45
2018-04-16T17:02:48.026Z,20.44
2018-04-16T17:04:59.151Z,20.45
2018-04-16T17:07:10.318Z,20.44
2018-04-16T17:09:21.487Z,20.42
2018-04-16T17:11:32.586Z,20.47
2018-04-16T17:13:43.788Z,20.44
2018-04-16T17:15:54.838Z,20.41
2018-04-16T17:18:05.927Z,20.37
2018-04-16T17:20:17.063Z,20.38
2018-04-16T17:22:28.153Z,20.33
2018-04-16T17:24:39.250Z,20.29
2018-04-16T17:26:50.297Z,20.34
2018-04-16T17:29:01.518Z,20.25
2018-04-16T17:31:12.616Z,20.18
2018-04-16T17:33:23.842Z,20.12
2018-04-16T17:35:34.925Z,20.12
2018-04-16T17:37:46.071Z,20.05
2018-04-16T17:39:57.149Z,20.01
2018-04-16T17:42:08.282Z,19.96
2018-04-16T17:44:19.350Z,19.93
2018-04-16T17:46:30.443Z,19.92
2018-04-16T17:48:41.661Z,19.90
2018-04-16T17:50:52.758Z,19.89
2018-04-16T17:53:03.897Z,19.88
2018-04-16T17:55:14.974Z,19.85
2018-04-16T17:57:26.067Z,19.81
2018-04-16T17:59:37.121Z,19.77
2018-04-16T18:01:48.240Z,19.72
2018-04-16T18:03:59.374Z,19.66
2018-04-16T18:06:10.454Z,19.54
2018-04-16T18:08:21.664Z,19.39
2018-04-16T18:10:32.779Z,19.16
2018-04-16T18:12:43.894Z,19.02
2018-04-16T18:14:54.979Z,18.92
2018-04-16T18:17:06.149Z,18.82
2018-04-16T18:19:17.207Z,18.69
2018-04-16T18:21:28.298Z,18.57
2018-04-16T18:23:39.454Z,18.49
2018-04-16T18:25:50.539Z,18.40
2018-04-16T18:28:01.672Z,18.35
2018-04-16T18:30:12.809Z,18.27
2018-04-16T18:32:23.991Z,18.15
2018-04-16T18:34:35.146Z,18.09
2018-04-16T18:36:46.231Z,18.05
2018-04-16T18:38:57.347Z,17.94
2018-04-16T18:41:08.443Z,17.76
2018-04-16T18:43:19.556Z,17.69
2018-04-16T18:45:30.723Z,17.48
2018-04-16T18:47:41.843Z,17.35
2018-04-16T18:49:52.931Z,17.29
2018-04-16T18:52:04.170Z,17.27
2018-04-16T18:54:15.362Z,17.20
2018-04-16T18:56:26.489Z,17.18
2018-04-16T18:58:37.541Z,17.11
2018-04-16T19:00:48.692Z,16.94
2018-04-16T19:02:59.788Z,16.87
2018-04-16T19:05:10.925Z,16.81
2018-04-16T19:07:22.117Z,16.78
2018-04-16T19:09:33.285Z,16.70
2018-04-16T19:11:44.442Z,16.53
2018-04-16T19:13:55.530Z,16.53
2018-04-16T19:16:06.674Z,16.52
2018-04-16T19:18:17.730Z,16.49
2018-04-16T19:20:34.700Z,16.44
2018-04-16T19:22:45.825Z,16.38
2018-04-16T19:24:56.917Z,16.32
2018-04-16T19:27:14.154Z,16.28
2018-04-16T19:29:25.210Z,16.21
2018-04-16T19:31:36.374Z,16.07
2018-04-16T19:33:53.407Z,15.96
2018-04-16T19:36:04.555Z,15.94
2018-04-16T19:38:15.664Z,15.97
2018-04-16T19:40:26.842Z,15.92
2018-04-16T19:42:40.852Z,15.82
2018-04-16T19:44:51.971Z,15.79
2018-04-16T19:47:03.109Z,15.72
2018-04-16T19:49:20.118Z,15.71
2018-04-16T19:51:31.239Z,15.70
2018-04-16T19:53:42.333Z,15.71
2018-04-16T19:55:59.503Z,15.58
2018-04-16T19:58:16.679Z,15.55
2018-04-16T20:00:27.754Z,15.38
2018-04-16T20:02:44.917Z,15.25
2018-04-16T20:04:56.020Z,15.27
2018-04-16T20:07:07.110Z,15.20
2018-04-16T20:09:18.307Z,15.15
2018-04-16T20:11:29.417Z,15.17
2018-04-16T20:13:40.606Z,15.15
2018-04-16T20:15:51.732Z,15.07
2018-04-16T20:18:03.027Z,15.00
2018-04-16T20:20:14.286Z,15.04
2018-04-16T20:22:25.506Z,15.00
2018-04-16T20:24:36.787Z,15.01
2018-04-16T20:26:48.049Z,14.93
2018-04-16T20:28:59.150Z,14.88
2018-04-16T20:31:10.421Z,14.87
2018-04-16T20:33:21.529Z,14.89
2018-04-16T20:35:32.601Z,14.95
2018-04-16T20:37:44.566Z,15.00
2018-04-16T20:39:55.770Z,15.00
2018-04-16T20:42:06.868Z,14.92
2018-04-16T20:44:17.946Z,14.87
2018-04-16T20:46:29.019Z,14.87
2018-04-16T20:48:40.171Z,14.82
2018-04-16T20:50:51.345Z,14.78
2018-04-16T20:53:02.465Z,14.78
2018-04-16T20:55:13.583Z,14.83
2018-04-16T20:57:24.758Z,14.88
2018-04-16T20:59:35.894Z,14.91
2018-04-16T21:01:46.962Z,14.95
2018-04-16T21:03:58.183Z,15.01
2018-04-16T21:06:09.261Z,15.06
2018-04-16T21:08:20.368Z,15.11
2018-04-16T21:10:31.466Z,15.17
2018-04-16T21:12:42.607Z,15.25
2018-04-16T21:14:53.690Z,15.34
2018-04-16T21:17:04.830Z,15.38
2018-04-16T21:19:15.970Z,15.35
2018-04-16T21:21:27.077Z,15.36
2018-04-16T21:23:38.396Z,15.35
2018-04-16T21:25:49.489Z,15.37
2018-04-16T21:28:00.599Z,15.32
2018-04-16T21:30:11.682Z,15.30
2018-04-16T21:32:23.062Z,15.31
2018-04-16T21:34:34.167Z,15.33
2018-04-16T21:36:45.299Z,15.31
2018-04-16T21:38:56.406Z,15.31
2018-04-16T21:41:07.472Z,15.33
2018-04-16T21:43:18.549Z,15.34
2018-04-16T21:45:29.732Z,15.43
2018-04-16T21:47:40.799Z,15.41
2018-04-16T21:49:51.914Z,15.43
2018-04-16T21:52:02.997Z,15.43
2018-04-16T21:54:14.962Z,15.43
2018-04-16T21:56:26.081Z,15.49
2018-04-16T21:58:37.154Z,15.43
2018-04-16T22:00:48.344Z,15.36
2018-04-16T22:02:59.389Z,15.35
2018-04-16T22:05:10.593Z,15.26
2018-04-16T22:07:22.231Z,15.24
2018-04-16T22:09:33.472Z,15.23
2018-04-16T22:11:44.690Z,15.24
2018-04-16T22:13:55.746Z,15.30
2018-04-16T22:16:06.860Z,15.34
2018-04-16T22:18:17.949Z,15.40
2018-04-16T22:20:29.088Z,15.45
2018-04-16T22:22:40.171Z,15.46
2018-04-16T22:24:51.217Z,15.46
2018-04-16T22:27:02.499Z,15.48
2018-04-16T22:29:13.541Z,15.48
2018-04-16T22:31:24.805Z,15.50
2018-04-16T22:33:35.907Z,15.52
2018-04-16T22:35:47.028Z,15.50
2018-04-16T22:37:58.122Z,15.47
2018-04-16T22:40:09.186Z,15.42
2018-04-16T22:42:20.296Z,15.39
2018-04-16T22:44:31.390Z,15.34
2018-04-16T22:46:42.462Z,15.29
2018-04-16T22:48:53.630Z,15.28
2018-04-16T22:51:04.682Z,15.27
2018-04-16T22:53:15.759Z,15.29
2018-04-16T22:55:26.821Z,15.29
2018-04-16T22:57:37.882Z,15.30
2018-04-16T22:59:48.976Z,15.27
2018-04-16T23:02:00.054Z,15.25
2018-04-16T23:04:11.142Z,15.23
2018-04-16T23:06:22.193Z,15.20
2018-04-16T23:08:33.289Z,15.14
2018-04-16T23:10:44.420Z,15.11
2018-04-16T23:12:55.498Z,15.06
2018-04-16T23:15:06.693Z,15.01
2018-04-16T23:17:17.770Z,15.00
2018-04-16T23:19:28.878Z,15.00
2018-04-16T23:21:39.974Z,14.94
2018-04-16T23:23:51.070Z,14.88
2018-04-16T23:26:02.133Z,14.84
2018-04-16T23:28:13.233Z,14.86
2018-04-16T23:30:24.334Z,14.79
2018-04-16T23:32:35.397Z,14.73
2018-04-16T23:34:46.461Z,14.67
2018-04-16T23:36:57.576Z,14.60
2018-04-16T23:39:08.700Z,14.56
2018-04-16T23:41:19.781Z,14.40
2018-04-16T23:43:30.953Z,14.26
2018-04-16T23:45:42.043Z,14.17
2018-04-16T23:47:54.142Z,14.13
2018-04-16T23:50:05.310Z,14.08
2018-04-16T23:52:16.394Z,14.04
2018-04-16T23:54:27.478Z,14.03
2018-04-16T23:56:38.562Z,14.00
2018-04-16T23:58:49.638Z,14.04
